ES-0055 weather

Aeródromo de Antequera
Antequera, Andalucía, Spain

Public forecast

Using degrees Celsius for public forecast. Weather courtesy of forecast.io.

METAR (pilot weather report)

Closest report is Málaga Airport, 25.8 nm (47.8 km) S. Retrieved 2018/12/15 22:30 UTC (0 seconds ago):

LEMG 152230Z 28018KT 260V320 CAVOK 16/07 Q1025 NOSIG

TAF (pilot weather forecast)

Closest forecast is Málaga Airport, 25.8 nm (47.8 km) S. Retrieved 2018/12/15 18:27 UTC (4 hours ago):

TAF LEMG 151700Z 1518/1618 29012KT CAVOK TX20/1614Z TN10/1606Z PROB40 TEMPO 1612/1618 30016G26KT